This demonstration page uses our WeatherBlox Daily Observations layout. Learn more.

Left ArrowRight Arrow

Hourly Observations for May 26, 2020

Temp ( °F °C ) Dew Point ( °F °C ) Humidity (%) Winds ( mph kmh ) Pressure ( in mb ) Visibility ( mi km ) Precip ( " mm )
12:56 am 00:56 Clear N/A N/A N/A NW 6 9 N/A 10 16 0.00 0.00
1:56 am 01:56 Clear N/A N/A N/A NW 6 9 N/A 10 16 0.00 0.00
2:56 am 02:56 Clear N/A N/A N/A NW 7 11 N/A 10 16 0.00 0.00
3:56 am 03:56 Clear N/A N/A N/A NW 7 11 N/A 10 16 0.00 0.00
4:56 am 04:56 Clear N/A N/A N/A NW 9 15 N/A 10 16 0.00 0.00
5:56 am 05:56 Clear N/A N/A N/A NW 7 11 N/A 10 16 0.00 0.00
6:56 am 06:56 Sunny N/A N/A N/A NNW 6 9 N/A 10 16 0.00 0.00
7:56 am 07:56 Sunny N/A N/A N/A NW 8 13 N/A 10 16 0.00 0.00
8:56 am 08:56 Sunny 55 12.8 50 10 83 83 NW 9 15 29.93 1014 10 16 0.00 0.00
9:56 am 09:56 Sunny 59 15 51 10.6 75 75 NNW 12 19 29.93 1013 10 16 0.00 0.00
10:56 am 10:56 Sunny 61 16.1 52 11.1 72 72 NNW 15 24 29.89 1012 10 16 0.00 0.00
11:56 am 11:56 Sunny 66 18.9 51 10.6 59 59 NNW 18 30 29.85 1011 10 16 0.00 0.00
12:56 pm 12:56 Sunny 68 20 49 9.4 51 51 N 21 33 29.84 1010 10 16 0.00 0.00
1:56 pm 13:56 Sunny 69 20.6 49 9.4 49 49 N 18 30 29.82 1010 10 16 0.00 0.00
2:56 pm 14:56 Partly Cloudy 72 22.2 52 11.1 50 50 N 13 20 29.81 1009 10 16 0.00 0.00
3:56 pm 15:56 Mostly Sunny 72 22.2 47 8.3 41 41 N 17 28 29.79 1009 10 16 0.00 0.00
4:56 pm 16:56 Sunny 72 22.2 49 9.4 44 44 NNW 16 26 29.79 1009 10 16 0.00 0.00
5:56 pm 17:56 Sunny 72 22.2 49 9.4 44 44 N 15 24 29.78 1008 10 16 0.00 0.00
6:56 pm 18:56 Sunny 71 21.7 49 9.4 46 46 N 14 22 29.79 1009 10 16 0.00 0.00
7:56 pm 19:56 Sunny 69 20.6 49 9.4 49 49 N 13 20 29.81 1010 10 16 0.00 0.00
8:56 pm 20:56 Sunny 62 16.7 52 11.1 70 70 NNE 8 13 29.88 1012 10 16 0.00 0.00
9:56 pm 21:56 Clear 61 16.1 52 11.1 72 72 Calm 29.89 1012 10 16 0.00 0.00
10:56 pm 22:56 Clear 60 15.6 53 11.7 78 78 NNW 3 6 29.91 1013 10 16 0.00 0.00
11:56 pm 23:56 Clear 58 14.4 51 10.6 78 78 NW 5 7 29.91 1013 10 16 0.00 0.00

Powered by AerisWeather